Vineland, NJ (08360)

2:18 AM EST on March 02, 2015 (GMT -0500)
Ramblewood | Change Station
CLOSE
Current Station
Personal Weather Station
Location: Vineland, NJ
Elevation: 110 ft
Nearby Weather Stations
Active Advisory: Winter Weather Advisory Active Notice: Public Information Statement

Elev 110 ft 39.50 °N, 75.01 °W | Updated 6 seconds ago

Overcast
Overcast
32.2 °F
Feels Like 32 °F
N
0.0
Wind Variable Wind from SSW
Gusts 0.0 mph

Today
High -- | Low -- °F
--% Chance of Precip.
Yesterday
High -- | Low -- °F
Precip. -- in
6:31 AM 5:53 PM
Waxing Gibbous, 90% visible
Pressure 30.13 in
Visibility 1.8 miles
Clouds Overcast 200 ft
Windchill 32 °F
Dew Point -4 °F
Humidity 20%
Rainfall 0.02 in
Snow Depth Not available.
UV 0 out of 12
Pollen .60 out of 12
PM2.5 Good
Flu Activity Widespread
METAR KMIV 020654Z AUTO 26006KT 1 3/4SM BR OVC002 00/M01 A3013 RMK AO2 UPE0556 SLPNO P0000 T00001006

More Conditions Fewer Conditions

Pressure 30.13 in
Visibility 1.8 miles
Clouds Overcast 200 ft
Windchill 32 °F
Dew Point -4 °F
Humidity 20%
Rainfall 0.02 in
Snow Depth Not available.
UV 0 out of 12
Pollen .60 out of 12
PM2.5 Good
Flu Activity Widespread
METAR KMIV 020654Z AUTO 26006KT 1 3/4SM BR OVC002 00/M01 A3013 RMK AO2 UPE0556 SLPNO P0000 T00001006

More Conditions Fewer Conditions

10-Day Weather Forecast

Almanac

Astronomy

Mar. 02, 2015 Rise Set
Actual Time 6:31 AM EST 5:53 PM EST
Civil Twilight 6:04 AM EST 6:20 PM EST
Nautical Twilight 5:33 AM EST 6:51 PM EST
Astronomical Twilight 5:02 AM EST 7:22 PM EST
Moon 3:20 PM EST 4:33 AM EST
Length of Visible Light 12h 15m
Length of Day
11h 21m
Tomorrow will be 2m 33s longer.
Waxing Gibbous, 90% of the Moon is Illuminated
Today
Waxing Gibbous
Mar 5
Full
Mar 13
Last Quarter
Mar 20
New
Mar 27
First Quarter

Today's Extremes

State Highs State Lows

Community

WunderPhotos

Upload Photos

1,801,739 photos uploaded!

Nearby

Air Quality

  Air Quality AQ Index Pollutant
Yesterday Moderate
PM2.5
Yesterday Good
OZONE
Current Good
PM2.5
Monday Moderate
PM2.5
Monday Good
OZONE

Snow Depth

Station Depth Elevation
No new snow has been reported.

Earthquake Activity

City Distance Mag. Time & Date
No recent earthquake activity has been reported nearby.
Minimum magnitude displayed is 2.5.

Coastal Water Temperatures

Place Temperature
Lewes, DE 30.0 °F
Ship John Shoal, NJ 30.9 °F

Nearby Weather Stations